createdAt,value
2023-02-11T00:00:05.431Z,91.85
2023-02-11T00:01:05.679Z,91.64
2023-02-11T00:02:05.554Z,91.50
2023-02-11T00:03:05.421Z,91.43
2023-02-11T00:04:05.425Z,91.85
2023-02-11T00:05:05.387Z,92.37
2023-02-11T00:06:05.417Z,92.47
2023-02-11T00:07:05.382Z,92.47
2023-02-11T00:08:05.375Z,92.58
2023-02-11T00:09:05.365Z,92.94
2023-02-11T00:10:05.378Z,92.83
2023-02-11T00:11:05.359Z,92.90
2023-02-11T00:12:05.335Z,92.79
2023-02-11T00:13:06.320Z,92.47
2023-02-11T00:14:05.371Z,92.58
2023-02-11T00:15:05.375Z,92.58
2023-02-11T00:16:05.300Z,92.58
2023-02-11T00:17:05.281Z,92.33
2023-02-11T00:18:05.270Z,91.75
2023-02-11T00:19:05.266Z,92.58
2023-02-11T00:20:07.891Z,92.47
2023-02-11T00:21:06.261Z,92.44
2023-02-11T00:22:05.306Z,92.27
2023-02-11T00:23:05.225Z,92.79
2023-02-11T00:24:05.214Z,92.58
2023-02-11T00:25:05.201Z,92.79
2023-02-11T00:26:05.233Z,92.47
2023-02-11T00:27:05.208Z,92.90
2023-02-11T00:28:05.202Z,93.31
2023-02-11T00:29:05.177Z,93.52
2023-02-11T00:30:05.165Z,94.57
2023-02-11T00:31:05.321Z,94.57
2023-02-11T00:32:05.152Z,94.67
2023-02-11T00:33:05.129Z,94.57
2023-02-11T00:34:05.136Z,94.88
2023-02-11T00:35:05.195Z,94.98
2023-02-11T00:36:05.120Z,95.09
2023-02-11T00:37:05.096Z,95.19
2023-02-11T00:38:05.578Z,95.09
2023-02-11T00:39:05.083Z,95.09
2023-02-11T00:40:06.799Z,94.98
2023-02-11T00:41:06.124Z,95.29
2023-02-11T00:42:05.047Z,94.67
2023-02-11T00:43:05.040Z,94.46
2023-02-11T00:44:05.073Z,94.88
2023-02-11T00:45:05.017Z,94.98
2023-02-11T00:46:05.045Z,95.09
2023-02-11T00:47:05.000Z,95.50
2023-02-11T00:48:04.993Z,95.50
2023-02-11T00:49:04.990Z,95.09
2023-02-11T00:50:04.968Z,95.25
2023-02-11T00:51:05.024Z,94.63
2023-02-11T00:52:05.044Z,95.15
2023-02-11T00:53:04.936Z,94.94
2023-02-11T00:54:04.942Z,94.84
2023-02-11T00:55:04.937Z,94.94
2023-02-11T00:56:04.913Z,95.25
2023-02-11T00:57:05.047Z,94.94
2023-02-11T00:58:04.902Z,94.73
2023-02-11T00:59:04.886Z,95.29
2023-02-11T01:00:04.876Z,95.46
2023-02-11T01:01:04.958Z,95.50
2023-02-11T01:02:04.877Z,95.61
2023-02-11T01:03:04.854Z,96.13
2023-02-11T01:04:04.846Z,96.09
2023-02-11T01:05:04.845Z,95.78
2023-02-11T01:06:04.828Z,95.56
2023-02-11T01:07:04.829Z,95.46
2023-02-11T01:08:04.816Z,95.46
2023-02-11T01:09:05.802Z,95.46
2023-02-11T01:10:04.804Z,95.46
2023-02-11T01:11:04.781Z,95.31
2023-02-11T01:12:04.788Z,94.48
2023-02-11T01:13:04.762Z,94.79
2023-02-11T01:14:04.757Z,94.84
2023-02-11T01:15:04.752Z,95.00
2023-02-11T01:16:04.781Z,94.79
2023-02-11T01:17:04.751Z,94.79
2023-02-11T01:18:04.721Z,94.94
2023-02-11T01:19:04.718Z,94.79
2023-02-11T01:20:04.699Z,94.79
2023-02-11T01:21:04.696Z,95.10
2023-02-11T01:22:04.692Z,94.79
2023-02-11T01:23:04.679Z,94.79
2023-02-11T01:24:04.667Z,94.48
2023-02-11T01:25:04.658Z,94.17
2023-02-11T01:26:04.653Z,94.27
2023-02-11T01:27:04.646Z,93.96
2023-02-11T01:28:04.672Z,93.60
2023-02-11T01:29:04.620Z,94.06
2023-02-11T01:30:04.652Z,94.17
2023-02-11T01:31:04.665Z,94.06
2023-02-11T01:32:04.609Z,93.91
2023-02-11T01:33:04.603Z,93.91
2023-02-11T01:34:04.579Z,93.60
2023-02-11T01:35:04.585Z,93.50
2023-02-11T01:36:04.573Z,93.18
2023-02-11T01:37:04.564Z,93.08
2023-02-11T01:38:04.544Z,93.44
2023-02-11T01:39:04.529Z,92.97
2023-02-11T01:40:04.527Z,92.97
2023-02-11T01:41:04.520Z,93.18
2023-02-11T01:42:04.522Z,93.12
2023-02-11T01:43:04.520Z,93.12
2023-02-11T01:44:04.498Z,92.71
2023-02-11T01:45:04.482Z,92.77
2023-02-11T01:46:04.517Z,92.77
2023-02-11T01:47:04.473Z,92.50
2023-02-11T01:48:04.466Z,92.71
2023-02-11T01:49:04.578Z,92.50
2023-02-11T01:50:04.440Z,92.81
2023-02-11T01:51:04.431Z,92.71
2023-02-11T01:52:04.438Z,92.81
2023-02-11T01:53:04.411Z,92.81
2023-02-11T01:54:04.411Z,92.91
2023-02-11T01:55:04.400Z,93.12
2023-02-11T01:56:04.406Z,92.50
2023-02-11T01:57:04.385Z,92.50
2023-02-11T01:58:04.371Z,92.50
2023-02-11T01:59:04.358Z,92.60
2023-02-11T02:00:04.359Z,92.71
2023-02-11T02:01:04.349Z,93.02
2023-02-11T02:02:04.365Z,92.81
2023-02-11T02:03:04.354Z,92.71
2023-02-11T02:04:04.355Z,92.54
2023-02-11T02:05:04.312Z,92.60
2023-02-11T02:06:04.298Z,92.71
2023-02-11T02:07:04.304Z,93.12
2023-02-11T02:08:04.281Z,92.85
2023-02-11T02:09:04.271Z,94.42
2023-02-11T02:10:04.287Z,94.10
2023-02-11T02:11:04.257Z,94.00
2023-02-11T02:12:04.267Z,94.42
2023-02-11T02:13:04.244Z,94.52
2023-02-11T02:14:04.223Z,94.00
2023-02-11T02:15:04.211Z,93.90
2023-02-11T02:16:04.251Z,93.79
2023-02-11T02:17:04.206Z,93.90
2023-02-11T02:18:04.188Z,94.00
2023-02-11T02:19:04.181Z,94.00
2023-02-11T02:20:04.173Z,93.96
2023-02-11T02:21:04.157Z,94.42
2023-02-11T02:22:04.156Z,94.00
2023-02-11T02:23:04.141Z,94.00
2023-02-11T02:24:04.131Z,94.42
2023-02-11T02:25:04.115Z,94.42
2023-02-11T02:26:04.111Z,94.52
2023-02-11T02:27:04.110Z,94.27
2023-02-11T02:28:04.099Z,94.17
2023-02-11T02:29:04.088Z,94.31
2023-02-11T02:30:04.066Z,94.63
2023-02-11T02:31:04.184Z,94.42
2023-02-11T02:32:04.060Z,94.27
2023-02-11T02:33:21.444Z,94.63
2023-02-11T02:34:06.040Z,94.94
2023-02-11T02:35:04.027Z,94.73
2023-02-11T02:36:04.018Z,94.94
2023-02-11T02:37:04.020Z,94.84
2023-02-11T02:38:04.004Z,94.84
2023-02-11T02:39:03.992Z,94.42
2023-02-11T02:40:03.979Z,94.84
2023-02-11T02:41:03.984Z,94.94
2023-02-11T02:42:03.982Z,95.98
2023-02-11T02:43:03.967Z,96.19
2023-02-11T02:44:03.954Z,95.98
2023-02-11T02:45:03.948Z,95.67
2023-02-11T02:46:03.935Z,95.78
2023-02-11T02:47:03.998Z,95.67
2023-02-11T02:48:03.922Z,95.88
2023-02-11T02:49:03.919Z,95.62
2023-02-11T02:50:03.930Z,95.94
2023-02-11T02:51:03.889Z,96.04
2023-02-11T02:52:03.899Z,95.94
2023-02-11T02:53:03.878Z,95.21
2023-02-11T02:54:03.869Z,95.52
2023-02-11T02:55:03.858Z,95.42
2023-02-11T02:56:03.865Z,94.75
2023-02-11T02:57:03.850Z,94.96
2023-02-11T02:58:03.825Z,95.00
2023-02-11T02:59:04.833Z,94.58
2023-02-11T03:00:03.817Z,95.56
2023-02-11T03:01:03.839Z,95.88
2023-02-11T03:02:03.810Z,95.78
2023-02-11T03:03:03.792Z,96.50
2023-02-11T03:04:03.907Z,96.71
2023-02-11T03:05:03.769Z,96.77
2023-02-11T03:06:03.755Z,96.77
2023-02-11T03:07:03.775Z,96.46
2023-02-11T03:08:03.736Z,96.25
2023-02-11T03:09:03.727Z,96.25
2023-02-11T03:10:03.719Z,96.04
2023-02-11T03:11:03.706Z,95.52
2023-02-11T03:12:03.712Z,96.00
2023-02-11T03:13:03.693Z,95.94
2023-02-11T03:14:03.691Z,95.83
2023-02-11T03:15:03.678Z,96.04
2023-02-11T03:16:03.750Z,95.73
2023-02-11T03:17:03.670Z,95.73
2023-02-11T03:18:03.645Z,95.79
2023-02-11T03:19:03.637Z,95.94
2023-02-11T03:20:03.657Z,96.00
2023-02-11T03:21:03.620Z,96.11
2023-02-11T03:22:03.629Z,95.58
2023-02-11T03:23:03.614Z,96.31
2023-02-11T03:24:03.592Z,95.79
2023-02-11T03:25:03.580Z,95.68
2023-02-11T03:26:03.580Z,95.89
2023-02-11T03:27:03.579Z,95.79
2023-02-11T03:28:03.605Z,95.89
2023-02-11T03:29:03.546Z,95.75
2023-02-11T03:30:03.538Z,95.68
2023-02-11T03:31:03.627Z,95.58
2023-02-11T03:32:03.601Z,95.58
2023-02-11T03:33:03.512Z,95.37
2023-02-11T03:34:03.509Z,95.89
2023-02-11T03:35:03.506Z,95.89
2023-02-11T03:36:03.485Z,95.68
2023-02-11T03:37:03.501Z,96.16
2023-02-11T03:38:03.459Z,95.43
2023-02-11T03:39:03.450Z,96.00
2023-02-11T03:40:03.450Z,95.27
2023-02-11T03:41:03.436Z,95.37
2023-02-11T03:42:03.436Z,95.33
2023-02-11T03:43:03.462Z,95.58
2023-02-11T03:44:03.409Z,95.33
2023-02-11T03:45:03.401Z,95.64
2023-02-11T03:46:03.477Z,95.43
2023-02-11T03:47:03.400Z,95.64
2023-02-11T03:48:03.393Z,95.58
2023-02-11T03:49:03.366Z,95.79
2023-02-11T03:50:03.379Z,95.68
2023-02-11T03:51:03.355Z,95.43
2023-02-11T03:52:03.364Z,95.58
2023-02-11T03:53:03.340Z,96.00
2023-02-11T03:54:03.323Z,95.75
2023-02-11T03:55:03.317Z,96.16
2023-02-11T03:56:03.302Z,96.26
2023-02-11T03:57:03.309Z,95.75
2023-02-11T03:58:03.286Z,95.75
2023-02-11T03:59:03.285Z,95.75
2023-02-11T04:00:03.270Z,95.12
2023-02-11T04:01:03.284Z,95.75
2023-02-11T04:02:03.264Z,95.85
2023-02-11T04:03:03.266Z,96.06
2023-02-11T04:04:03.228Z,96.06
2023-02-11T04:05:03.216Z,96.37
2023-02-11T04:06:03.222Z,96.69
2023-02-11T04:07:03.213Z,96.26
2023-02-11T04:08:03.197Z,96.69
2023-02-11T04:09:03.186Z,96.26
2023-02-11T04:10:03.192Z,96.48
2023-02-11T04:11:03.166Z,96.48
2023-02-11T04:12:03.169Z,96.53
2023-02-11T04:13:03.151Z,95.29
2023-02-11T04:14:03.142Z,95.81
2023-02-11T04:15:03.129Z,95.75
2023-02-11T04:16:03.257Z,95.70
2023-02-11T04:17:03.121Z,95.91
2023-02-11T04:18:03.097Z,95.60
2023-02-11T04:19:03.092Z,95.70
2023-02-11T04:20:03.083Z,95.45
2023-02-11T04:21:03.075Z,95.91
2023-02-11T04:22:03.077Z,95.39
2023-02-11T04:23:03.066Z,95.50
2023-02-11T04:24:03.054Z,95.29
2023-02-11T04:25:03.033Z,95.81
2023-02-11T04:26:03.047Z,95.45
2023-02-11T04:27:03.030Z,95.91
2023-02-11T04:28:03.063Z,94.82
2023-02-11T04:29:02.997Z,95.60
2023-02-11T04:30:02.990Z,95.14
2023-02-11T04:31:03.040Z,94.82
2023-02-11T04:32:02.996Z,94.31
2023-02-11T04:33:02.997Z,95.14
2023-02-11T04:34:02.962Z,95.35
2023-02-11T04:35:02.964Z,94.93
2023-02-11T04:36:02.938Z,95.25
2023-02-11T04:37:02.928Z,94.82
2023-02-11T04:38:02.931Z,95.14
2023-02-11T04:39:02.909Z,95.39
2023-02-11T04:40:02.889Z,95.81
2023-02-11T04:41:03.894Z,96.01
2023-02-11T04:42:02.893Z,95.91
2023-02-11T04:43:02.903Z,95.60
2023-02-11T04:44:02.871Z,95.60
2023-02-11T04:45:02.885Z,95.81
2023-02-11T04:46:02.884Z,95.91
2023-02-11T04:47:02.831Z,95.60
2023-02-11T04:48:03.846Z,95.14
2023-02-11T04:49:02.827Z,95.76
2023-02-11T04:50:02.813Z,95.76
2023-02-11T04:51:02.814Z,94.93
2023-02-11T04:52:02.805Z,94.87
2023-02-11T04:53:02.804Z,95.29
2023-02-11T04:54:02.792Z,95.25
2023-02-11T04:55:02.769Z,95.14
2023-02-11T04:56:02.763Z,95.25
2023-02-11T04:57:02.759Z,95.39
2023-02-11T04:58:02.789Z,95.03
2023-02-11T04:59:02.737Z,95.03
2023-02-11T05:00:02.734Z,95.14
2023-02-11T05:01:02.737Z,95.35
2023-02-11T05:02:02.713Z,95.56
2023-02-11T05:03:02.714Z,95.14
2023-02-11T05:04:02.715Z,95.35
2023-02-11T05:05:02.689Z,95.35
2023-02-11T05:06:02.675Z,94.72
2023-02-11T05:07:02.679Z,95.35
2023-02-11T05:08:02.673Z,95.25
2023-02-11T05:09:02.660Z,95.35
2023-02-11T05:10:03.130Z,95.35
2023-02-11T05:11:02.641Z,95.03
2023-02-11T05:12:02.621Z,95.35
2023-02-11T05:13:02.654Z,95.87
2023-02-11T05:14:02.599Z,95.66
2023-02-11T05:15:02.615Z,95.60
2023-02-11T05:16:02.580Z,95.70
2023-02-11T05:17:02.642Z,95.76
2023-02-11T05:18:02.578Z,95.87
2023-02-11T05:19:02.566Z,96.22
2023-02-11T05:20:02.551Z,96.43
2023-02-11T05:21:02.542Z,96.12
2023-02-11T05:22:03.636Z,96.28
2023-02-11T05:23:03.539Z,96.28
2023-02-11T05:24:02.513Z,96.59
2023-02-11T05:25:02.507Z,96.49
2023-02-11T05:26:02.491Z,96.39
2023-02-11T05:27:02.493Z,95.87
2023-02-11T05:28:02.550Z,95.87
2023-02-11T05:29:02.471Z,96.28
2023-02-11T05:30:02.464Z,96.39
2023-02-11T05:31:02.525Z,96.39
2023-02-11T05:32:02.468Z,96.28
2023-02-11T05:33:02.442Z,96.33
2023-02-11T05:34:02.428Z,96.08
2023-02-11T05:35:02.441Z,96.70
2023-02-11T05:36:02.405Z,96.70
2023-02-11T05:37:02.462Z,96.59
2023-02-11T05:38:02.393Z,96.18
2023-02-11T05:39:02.390Z,96.08
2023-02-11T05:40:02.416Z,96.39
2023-02-11T05:41:02.365Z,96.66
2023-02-11T05:42:02.350Z,96.34
2023-02-11T05:43:02.363Z,96.18
2023-02-11T05:44:02.330Z,96.34
2023-02-11T05:45:02.325Z,96.39
2023-02-11T05:46:02.353Z,96.28
2023-02-11T05:47:02.307Z,96.49
2023-02-11T05:48:02.305Z,96.08
2023-02-11T05:49:02.281Z,96.39
2023-02-11T05:50:02.288Z,96.39
2023-02-11T05:51:02.270Z,96.39
2023-02-11T05:52:03.252Z,96.34
2023-02-11T05:53:02.269Z,96.24
2023-02-11T05:54:02.239Z,96.08
2023-02-11T05:55:02.224Z,95.93
2023-02-11T05:56:02.214Z,95.93
2023-02-11T05:57:02.206Z,95.30
2023-02-11T05:58:02.217Z,95.20
2023-02-11T05:59:02.192Z,95.62
2023-02-11T06:00:02.182Z,96.03
2023-02-11T06:01:02.169Z,95.72
2023-02-11T06:02:02.178Z,95.62
2023-02-11T06:03:02.174Z,95.62
2023-02-11T06:04:02.204Z,95.72
2023-02-11T06:05:02.138Z,95.62
2023-02-11T06:06:02.140Z,95.83
2023-02-11T06:07:02.115Z,95.51
2023-02-11T06:08:02.112Z,95.51
2023-02-11T06:09:02.095Z,95.62
2023-02-11T06:10:02.086Z,95.51
2023-02-11T06:11:02.069Z,95.78
2023-02-11T06:12:02.071Z,95.57
2023-02-11T06:13:02.075Z,95.26
2023-02-11T06:14:02.051Z,95.67
2023-02-11T06:15:02.042Z,95.05
2023-02-11T06:16:02.123Z,95.09
2023-02-11T06:17:02.035Z,94.74
2023-02-11T06:18:02.038Z,94.95
2023-02-11T06:19:02.008Z,95.09
2023-02-11T06:20:02.003Z,95.09
2023-02-11T06:21:01.983Z,94.84
2023-02-11T06:22:01.977Z,95.26
2023-02-11T06:23:01.986Z,95.09
2023-02-11T06:24:01.955Z,95.20
2023-02-11T06:25:02.479Z,95.51
2023-02-11T06:26:02.939Z,95.56
2023-02-11T06:27:01.935Z,95.87
2023-02-11T06:28:01.973Z,95.56
2023-02-11T06:29:01.915Z,95.76
2023-02-11T06:30:01.913Z,95.76
2023-02-11T06:31:01.974Z,95.66
2023-02-11T06:32:02.127Z,95.51
2023-02-11T06:33:01.896Z,95.83
2023-02-11T06:34:01.870Z,95.25
2023-02-11T06:35:01.880Z,95.87
2023-02-11T06:36:01.863Z,95.76
2023-02-11T06:37:01.855Z,95.66
2023-02-11T06:38:01.846Z,96.12
2023-02-11T06:39:01.829Z,96.95
2023-02-11T06:40:01.823Z,97.31
2023-02-11T06:41:01.823Z,97.52
2023-02-11T06:42:01.809Z,98.25
2023-02-11T06:43:01.811Z,98.50
2023-02-11T06:44:01.805Z,98.39
2023-02-11T06:45:01.779Z,98.92
2023-02-11T06:46:01.770Z,98.60
2023-02-11T06:47:01.771Z,98.66
2023-02-11T06:48:01.760Z,98.66
2023-02-11T06:49:01.743Z,98.56
2023-02-11T06:50:01.735Z,98.25
2023-02-11T06:51:01.719Z,97.52
2023-02-11T06:52:02.724Z,98.56
2023-02-11T06:53:01.720Z,98.66
2023-02-11T06:54:01.701Z,97.94
2023-02-11T06:55:01.697Z,97.94
2023-02-11T06:56:01.694Z,98.04
2023-02-11T06:57:01.678Z,98.04
2023-02-11T06:58:01.682Z,98.66
2023-02-11T06:59:01.663Z,98.56
2023-02-11T07:00:01.675Z,98.77
2023-02-11T07:01:01.643Z,98.56
2023-02-11T07:02:01.686Z,98.46
2023-02-11T07:03:01.701Z,98.66
2023-02-11T07:04:01.614Z,98.66
2023-02-11T07:05:01.627Z,98.52
2023-02-11T07:06:01.595Z,98.56
2023-02-11T07:07:01.586Z,97.99
2023-02-11T07:08:01.590Z,98.31
2023-02-11T07:09:01.572Z,98.52
2023-02-11T07:10:01.562Z,97.37
2023-02-11T07:11:01.554Z,97.47
2023-02-11T07:12:01.564Z,97.53
2023-02-11T07:13:01.551Z,97.64
2023-02-11T07:14:01.566Z,97.22
2023-02-11T07:15:01.554Z,96.91
2023-02-11T07:16:01.556Z,97.12
2023-02-11T07:17:01.526Z,97.22
2023-02-11T07:18:01.523Z,97.43
2023-02-11T07:19:01.479Z,97.74
2023-02-11T07:20:01.472Z,97.38
2023-02-11T07:21:01.467Z,96.55
2023-02-11T07:22:01.458Z,96.86
2023-02-11T07:23:01.469Z,96.66
2023-02-11T07:24:01.438Z,96.66
2023-02-11T07:25:01.427Z,96.24
2023-02-11T07:26:01.430Z,96.34
2023-02-11T07:27:01.415Z,95.93
2023-02-11T07:28:01.474Z,96.03
2023-02-11T07:29:01.396Z,95.62
2023-02-11T07:30:01.398Z,95.89
2023-02-11T07:31:01.599Z,95.26
2023-02-11T07:32:01.424Z,95.57
2023-02-11T07:33:01.376Z,95.78
2023-02-11T07:34:01.366Z,95.40
2023-02-11T07:35:01.433Z,95.57
2023-02-11T07:36:01.348Z,95.57
2023-02-11T07:37:01.323Z,95.83
2023-02-11T07:38:01.335Z,95.47
2023-02-11T07:39:01.319Z,95.62
2023-02-11T07:40:01.313Z,95.62
2023-02-11T07:41:01.303Z,96.55
2023-02-11T07:42:01.297Z,96.80
2023-02-11T07:43:01.297Z,97.22
2023-02-11T07:44:01.285Z,98.10
2023-02-11T07:45:01.263Z,98.52
2023-02-11T07:46:01.253Z,98.41
2023-02-11T07:47:01.365Z,99.08
2023-02-11T07:48:01.235Z,98.87
2023-02-11T07:49:01.235Z,99.87
2023-02-11T07:50:01.217Z,99.87
2023-02-11T07:51:01.210Z,99.55
2023-02-11T07:52:01.200Z,99.18
2023-02-11T07:53:01.196Z,99.91
2023-02-11T07:54:01.204Z,99.99
2023-02-11T07:55:03.775Z,99.55
2023-02-11T07:56:01.166Z,99.99
2023-02-11T07:57:01.175Z,99.35
2023-02-11T07:58:01.173Z,99.99
2023-02-11T07:59:01.159Z,99.81
2023-02-11T08:00:01.132Z,99.87
2023-02-11T08:01:01.168Z,99.87
2023-02-11T08:02:01.133Z,99.20
2023-02-11T08:03:01.109Z,99.62
2023-02-11T08:04:01.117Z,99.99
2023-02-11T08:05:01.095Z,98.88
2023-02-11T08:06:01.085Z,98.72
2023-02-11T08:07:01.082Z,98.68
2023-02-11T08:08:01.074Z,99.55
2023-02-11T08:09:01.075Z,99.51
2023-02-11T08:10:01.076Z,98.72
2023-02-11T08:11:01.042Z,99.98
2023-02-11T08:12:01.032Z,99.76
2023-02-11T08:13:01.025Z,99.66
2023-02-11T08:14:01.046Z,99.76
2023-02-11T08:15:01.004Z,99.98
2023-02-11T08:16:01.048Z,99.72
2023-02-11T08:17:00.987Z,99.93
2023-02-11T08:18:00.972Z,99.77
2023-02-11T08:19:00.986Z,99.51
2023-02-11T08:20:00.956Z,98.63
2023-02-11T08:21:00.949Z,98.84
2023-02-11T08:22:00.941Z,98.32
2023-02-11T08:23:00.931Z,97.74
2023-02-11T08:24:00.931Z,98.74
2023-02-11T08:25:00.914Z,98.43
2023-02-11T08:26:00.904Z,98.11
2023-02-11T08:27:00.909Z,98.07
2023-02-11T08:28:00.932Z,98.01
2023-02-11T08:29:01.894Z,98.22
2023-02-11T08:30:00.889Z,98.11
2023-02-11T08:31:00.867Z,97.91
2023-02-11T08:32:00.922Z,98.11
2023-02-11T08:33:00.847Z,97.91
2023-02-11T08:34:00.848Z,98.22
2023-02-11T08:35:00.835Z,98.11
2023-02-11T08:36:00.825Z,98.88
2023-02-11T08:37:00.815Z,99.51
2023-02-11T08:38:00.800Z,99.15
2023-02-11T08:39:17.613Z,98.74
2023-02-11T08:40:02.797Z,98.84
2023-02-11T08:41:00.775Z,98.80
2023-02-11T08:42:00.769Z,98.69
2023-02-11T08:43:00.762Z,98.59
2023-02-11T08:44:00.767Z,98.38
2023-02-11T08:45:00.738Z,98.84
2023-02-11T08:46:02.164Z,97.59
2023-02-11T08:47:01.832Z,98.63
2023-02-11T08:48:00.714Z,98.07
2023-02-11T08:49:00.723Z,98.43
2023-02-11T08:50:00.696Z,98.17
2023-02-11T08:51:00.695Z,98.38
2023-02-11T08:52:00.676Z,98.63
2023-02-11T08:53:00.669Z,98.59
2023-02-11T08:54:00.680Z,98.32
2023-02-11T08:55:00.732Z,98.38
2023-02-11T08:56:00.638Z,98.43
2023-02-11T08:57:00.639Z,98.27
2023-02-11T08:58:00.623Z,98.17
2023-02-11T08:59:00.630Z,98.63
2023-02-11T09:00:00.874Z,98.53
2023-02-11T09:01:00.627Z,98.59
2023-02-11T09:02:00.621Z,98.48
2023-02-11T09:03:00.582Z,98.27
2023-02-11T09:04:00.579Z,97.96
2023-02-11T09:05:00.557Z,98.48
2023-02-11T09:06:00.546Z,97.86
2023-02-11T09:07:00.529Z,97.86
2023-02-11T09:08:01.557Z,98.13
2023-02-11T09:09:00.534Z,98.23
2023-02-11T09:10:00.508Z,98.44
2023-02-11T09:11:00.518Z,96.98
2023-02-11T09:12:00.500Z,97.50
2023-02-11T09:13:00.491Z,97.71
2023-02-11T09:14:00.492Z,97.50
2023-02-11T09:15:00.474Z,97.61
2023-02-11T09:16:00.480Z,97.09
2023-02-11T09:17:00.535Z,97.30
2023-02-11T09:18:00.456Z,97.24
2023-02-11T09:19:00.462Z,96.92
2023-02-11T09:20:00.453Z,97.13
2023-02-11T09:21:00.483Z,97.55
2023-02-11T09:22:00.424Z,97.92
2023-02-11T09:23:00.771Z,97.50
2023-02-11T09:24:00.416Z,97.45
2023-02-11T09:25:00.388Z,97.25
2023-02-11T09:26:00.378Z,96.94
2023-02-11T09:27:00.481Z,97.04
2023-02-11T09:28:00.443Z,97.25
2023-02-11T09:29:00.366Z,97.35
2023-02-11T09:30:00.345Z,96.62
2023-02-11T09:31:00.471Z,96.27
2023-02-11T09:32:00.608Z,96.52
2023-02-11T09:33:00.321Z,96.42
2023-02-11T09:34:00.314Z,97.10
2023-02-11T09:35:00.297Z,95.13
2023-02-11T09:36:00.298Z,95.54
2023-02-11T09:37:00.284Z,95.44
2023-02-11T09:38:00.274Z,95.54
2023-02-11T09:39:00.274Z,95.23
2023-02-11T09:40:00.257Z,95.29
2023-02-11T09:41:00.248Z,95.19
2023-02-11T09:42:00.286Z,95.34
2023-02-11T09:43:03.752Z,95.19
2023-02-11T09:44:01.234Z,95.09
2023-02-11T09:45:00.215Z,95.50
2023-02-11T09:46:00.271Z,94.84
2023-02-11T09:47:00.188Z,95.09
2023-02-11T09:48:01.209Z,95.04
2023-02-11T09:49:00.193Z,94.94
2023-02-11T09:50:00.205Z,94.11
2023-02-11T09:51:00.157Z,94.58
2023-02-11T09:52:00.149Z,93.85
2023-02-11T09:53:00.148Z,94.21
2023-02-11T09:54:01.668Z,94.06
2023-02-11T09:55:01.121Z,93.33
2023-02-11T09:56:00.124Z,93.33
2023-02-11T09:57:00.122Z,93.65
2023-02-11T09:58:00.114Z,93.91
2023-02-11T09:59:00.161Z,93.40
2023-02-11T10:00:00.129Z,92.68
2023-02-11T10:01:00.113Z,92.57
2023-02-11T10:02:00.106Z,92.16
2023-02-11T10:03:00.055Z,91.95
2023-02-11T10:04:00.122Z,91.74
2023-02-11T10:05:00.069Z,91.95
2023-02-11T10:06:00.046Z,92.16
2023-02-11T10:07:00.019Z,91.89
2023-02-11T10:08:00.039Z,92.61
2023-02-11T10:09:00.020Z,92.57
2023-02-11T10:10:00.002Z,92.36
2023-02-11T10:11:00.012Z,92.88
2023-02-11T10:11:59.982Z,92.78
2023-02-11T10:12:59.974Z,92.26
2023-02-11T10:13:59.979Z,91.95
2023-02-11T10:14:59.955Z,92.11
2023-02-11T10:15:59.963Z,92.43
2023-02-11T10:16:59.962Z,92.11
2023-02-11T10:17:59.930Z,92.11
2023-02-11T10:18:59.930Z,92.11
2023-02-11T10:20:00.911Z,91.86
2023-02-11T10:20:59.901Z,91.76
2023-02-11T10:21:59.896Z,91.51
2023-02-11T10:22:59.906Z,91.20
2023-02-11T10:23:59.887Z,90.99
2023-02-11T10:24:59.888Z,91.20
2023-02-11T10:25:59.875Z,90.78
2023-02-11T10:26:59.854Z,89.54
2023-02-11T10:27:59.900Z,89.79
2023-02-11T10:28:59.838Z,90.14
2023-02-11T10:29:59.832Z,91.28
2023-02-11T10:30:59.921Z,91.14
2023-02-11T10:31:59.888Z,91.66
2023-02-11T10:32:59.803Z,91.55
2023-02-11T10:33:59.788Z,91.45
2023-02-11T10:34:59.791Z,91.86
2023-02-11T10:35:59.794Z,91.76
2023-02-11T10:36:59.764Z,91.66
2023-02-11T10:37:59.758Z,91.60
2023-02-11T10:38:59.755Z,91.49
2023-02-11T10:39:59.753Z,92.01
2023-02-11T10:40:59.745Z,92.16
2023-02-11T10:41:59.723Z,92.43
2023-02-11T10:42:59.716Z,92.63
2023-02-11T10:43:59.706Z,92.32
2023-02-11T10:44:59.708Z,92.53
2023-02-11T10:45:59.706Z,92.80
2023-02-11T10:46:59.683Z,92.22
2023-02-11T10:47:59.666Z,91.86
2023-02-11T10:48:59.655Z,91.97
2023-02-11T10:49:59.662Z,91.66
2023-02-11T10:50:59.639Z,91.51
2023-02-11T10:51:59.637Z,91.51
2023-02-11T10:52:59.624Z,91.66
2023-02-11T10:53:59.616Z,91.61
2023-02-11T10:54:59.629Z,90.99
2023-02-11T10:55:59.601Z,90.68
2023-02-11T10:56:59.584Z,90.78
2023-02-11T10:57:59.584Z,90.47
2023-02-11T10:58:59.573Z,90.93
2023-02-11T10:59:59.592Z,91.14
2023-02-11T11:00:59.564Z,90.99
2023-02-11T11:01:59.600Z,91.09
2023-02-11T11:02:59.537Z,90.89
2023-02-11T11:03:59.531Z,90.89
2023-02-11T11:04:59.589Z,91.20
2023-02-11T11:05:59.512Z,91.16
2023-02-11T11:06:59.509Z,90.53
2023-02-11T11:07:59.512Z,89.81
2023-02-11T11:08:59.501Z,90.26
2023-02-11T11:09:59.497Z,90.02
2023-02-11T11:10:59.480Z,89.50
2023-02-11T11:11:59.475Z,89.81
2023-02-11T11:12:59.457Z,90.02
2023-02-11T11:13:59.449Z,89.25
2023-02-11T11:14:59.454Z,89.67
2023-02-11T11:15:59.472Z,89.62
2023-02-11T11:16:59.423Z,89.15
2023-02-11T11:18:11.439Z,89.11
2023-02-11T11:19:01.407Z,89.62
2023-02-11T11:19:59.408Z,88.90
2023-02-11T11:20:59.393Z,88.90
2023-02-11T11:21:59.381Z,87.76
2023-02-11T11:22:59.369Z,88.18
2023-02-11T11:23:59.364Z,87.76
2023-02-11T11:24:59.407Z,87.76
2023-02-11T11:25:59.463Z,87.76
2023-02-11T11:26:59.336Z,87.87
2023-02-11T11:27:59.372Z,87.73
2023-02-11T11:28:59.310Z,87.97
2023-02-11T11:29:59.311Z,88.59
2023-02-11T11:30:59.362Z,88.90
2023-02-11T11:31:59.321Z,88.70
2023-02-11T11:32:59.278Z,88.14
2023-02-11T11:33:59.266Z,88.76
2023-02-11T11:34:59.264Z,88.45
2023-02-11T11:35:59.245Z,88.24
2023-02-11T11:36:59.240Z,88.86
2023-02-11T11:38:01.949Z,88.82
2023-02-11T11:39:00.220Z,88.34
2023-02-11T11:39:59.225Z,88.31
2023-02-11T11:40:59.198Z,87.99
2023-02-11T11:41:59.190Z,87.99
2023-02-11T11:42:59.179Z,87.58
2023-02-11T11:43:59.177Z,87.17
2023-02-11T11:44:59.187Z,87.07
2023-02-11T11:45:59.155Z,86.86
2023-02-11T11:46:59.157Z,87.02
2023-02-11T11:47:59.137Z,85.99
2023-02-11T11:48:59.125Z,86.51
2023-02-11T11:49:59.122Z,86.20
2023-02-11T11:50:59.104Z,86.20
2023-02-11T11:51:59.201Z,85.68
2023-02-11T11:52:59.084Z,86.10
2023-02-11T11:53:59.080Z,86.10
2023-02-11T11:54:59.076Z,85.95
2023-02-11T11:55:59.846Z,86.36
2023-02-11T11:57:00.056Z,85.75
2023-02-11T11:57:59.045Z,85.75
2023-02-11T11:58:59.034Z,85.95
2023-02-11T11:59:59.044Z,85.95
2023-02-11T12:00:59.013Z,86.05
2023-02-11T12:01:59.067Z,86.16
2023-02-11T12:02:59.032Z,85.95
2023-02-11T12:03:58.989Z,85.91
2023-02-11T12:04:58.986Z,85.64
2023-02-11T12:05:58.964Z,85.13
2023-02-11T12:06:58.981Z,85.44
2023-02-11T12:07:58.949Z,85.85
2023-02-11T12:08:58.943Z,86.05
2023-02-11T12:09:58.937Z,86.16
2023-02-11T12:10:58.917Z,87.54
2023-02-11T12:11:58.936Z,87.65
2023-02-11T12:12:58.899Z,87.02
2023-02-11T12:13:58.900Z,87.48
2023-02-11T12:14:58.892Z,87.89
2023-02-11T12:15:58.924Z,87.68
2023-02-11T12:16:58.865Z,87.99
2023-02-11T12:17:58.847Z,88.86
2023-02-11T12:18:58.857Z,88.41
2023-02-11T12:19:58.844Z,88.51
2023-02-11T12:20:58.829Z,88.31
2023-02-11T12:21:58.833Z,88.71
2023-02-11T12:22:58.804Z,88.71
2023-02-11T12:23:58.792Z,89.34
2023-02-11T12:24:58.796Z,88.71
2023-02-11T12:25:58.779Z,88.82
2023-02-11T12:26:58.773Z,88.96
2023-02-11T12:27:58.794Z,89.17
2023-02-11T12:28:58.753Z,89.59
2023-02-11T12:29:58.752Z,89.32
2023-02-11T12:30:58.806Z,90.04
2023-02-11T12:31:58.776Z,90.56
2023-02-11T12:32:58.736Z,91.17
2023-02-11T12:33:58.710Z,90.97
2023-02-11T12:34:58.733Z,90.87
2023-02-11T12:35:58.700Z,90.77
2023-02-11T12:37:01.322Z,90.87
2023-02-11T12:37:58.780Z,90.97
2023-02-11T12:38:59.670Z,91.07
2023-02-11T12:39:58.669Z,91.07
2023-02-11T12:40:58.657Z,91.07
2023-02-11T12:41:58.661Z,91.07
2023-02-11T12:43:00.300Z,91.07
2023-02-11T12:43:58.625Z,90.80
2023-02-11T12:44:58.626Z,91.42
2023-02-11T12:45:58.629Z,91.53
2023-02-11T12:46:58.602Z,91.22
2023-02-11T12:47:58.591Z,91.63
2023-02-11T12:48:58.580Z,91.63
2023-02-11T12:49:58.588Z,91.42
2023-02-11T12:50:58.603Z,91.32
2023-02-11T12:51:58.559Z,91.32